sensor_id;sensor_type;location;lat;lon;timestamp;P1;durP1;ratioP1;P2;durP2;ratioP2
10731;SDS011;5417;42.686;23.244;2023-08-30T00:01:39;6.90;;;6.30;;
10731;SDS011;5417;42.686;23.244;2023-08-30T00:04:09;7.60;;;6.97;;
10731;SDS011;5417;42.686;23.244;2023-08-30T00:06:40;7.30;;;6.60;;
10731;SDS011;5417;42.686;23.244;2023-08-30T00:09:07;7.60;;;7.00;;
10731;SDS011;5417;42.686;23.244;2023-08-30T00:11:34;7.00;;;6.33;;
10731;SDS011;5417;42.686;23.244;2023-08-30T00:14:04;6.60;;;6.10;;
10731;SDS011;5417;42.686;23.244;2023-08-30T00:16:34;7.57;;;6.77;;
10731;SDS011;5417;42.686;23.244;2023-08-30T00:19:04;6.80;;;6.20;;
10731;SDS011;5417;42.686;23.244;2023-08-30T00:21:32;7.47;;;6.77;;
10731;SDS011;5417;42.686;23.244;2023-08-30T00:24:00;7.63;;;6.30;;
10731;SDS011;5417;42.686;23.244;2023-08-30T00:26:27;7.87;;;7.00;;
10731;SDS011;5417;42.686;23.244;2023-08-30T00:28:54;7.17;;;6.47;;
10731;SDS011;5417;42.686;23.244;2023-08-30T00:31:21;6.80;;;6.23;;
10731;SDS011;5417;42.686;23.244;2023-08-30T00:33:48;7.13;;;6.60;;
10731;SDS011;5417;42.686;23.244;2023-08-30T00:36:15;6.53;;;5.93;;
10731;SDS011;5417;42.686;23.244;2023-08-30T00:38:43;6.93;;;6.20;;
10731;SDS011;5417;42.686;23.244;2023-08-30T00:41:11;7.30;;;6.60;;
10731;SDS011;5417;42.686;23.244;2023-08-30T00:43:38;9.53;;;6.80;;
10731;SDS011;5417;42.686;23.244;2023-08-30T00:46:05;8.53;;;5.90;;
10731;SDS011;5417;42.686;23.244;2023-08-30T00:48:32;6.83;;;5.90;;
10731;SDS011;5417;42.686;23.244;2023-08-30T00:51:00;8.03;;;5.97;;
10731;SDS011;5417;42.686;23.244;2023-08-30T00:53:27;6.90;;;6.30;;
10731;SDS011;5417;42.686;23.244;2023-08-30T00:55:54;6.00;;;5.50;;
10731;SDS011;5417;42.686;23.244;2023-08-30T00:58:22;6.43;;;5.83;;
10731;SDS011;5417;42.686;23.244;2023-08-30T01:00:51;6.63;;;5.83;;
10731;SDS011;5417;42.686;23.244;2023-08-30T01:03:19;6.20;;;5.67;;
10731;SDS011;5417;42.686;23.244;2023-08-30T01:05:51;7.57;;;6.30;;
10731;SDS011;5417;42.686;23.244;2023-08-30T01:08:18;6.50;;;5.90;;
10731;SDS011;5417;42.686;23.244;2023-08-30T01:10:47;6.97;;;6.27;;
10731;SDS011;5417;42.686;23.244;2023-08-30T01:13:20;6.77;;;6.10;;
10731;SDS011;5417;42.686;23.244;2023-08-30T01:15:53;7.80;;;6.23;;
10731;SDS011;5417;42.686;23.244;2023-08-30T01:18:24;6.70;;;6.20;;
10731;SDS011;5417;42.686;23.244;2023-08-30T01:20:54;6.43;;;5.80;;
10731;SDS011;5417;42.686;23.244;2023-08-30T01:23:28;6.70;;;6.03;;
10731;SDS011;5417;42.686;23.244;2023-08-30T01:26:14;6.60;;;6.00;;
10731;SDS011;5417;42.686;23.244;2023-08-30T01:28:53;6.80;;;6.27;;
10731;SDS011;5417;42.686;23.244;2023-08-30T01:31:23;7.53;;;6.33;;
10731;SDS011;5417;42.686;23.244;2023-08-30T01:33:51;6.27;;;5.80;;
10731;SDS011;5417;42.686;23.244;2023-08-30T01:36:19;5.80;;;5.40;;
10731;SDS011;5417;42.686;23.244;2023-08-30T01:38:48;6.03;;;5.43;;
10731;SDS011;5417;42.686;23.244;2023-08-30T01:41:16;6.47;;;5.97;;
10731;SDS011;5417;42.686;23.244;2023-08-30T01:43:44;5.70;;;5.33;;
10731;SDS011;5417;42.686;23.244;2023-08-30T01:46:13;6.30;;;5.70;;
10731;SDS011;5417;42.686;23.244;2023-08-30T01:48:42;6.20;;;5.70;;
10731;SDS011;5417;42.686;23.244;2023-08-30T01:51:09;7.00;;;6.30;;
10731;SDS011;5417;42.686;23.244;2023-08-30T01:53:43;6.80;;;6.13;;
10731;SDS011;5417;42.686;23.244;2023-08-30T01:56:11;6.00;;;5.47;;
10731;SDS011;5417;42.686;23.244;2023-08-30T01:58:38;6.47;;;5.87;;
10731;SDS011;5417;42.686;23.244;2023-08-30T02:01:05;6.23;;;5.73;;
10731;SDS011;5417;42.686;23.244;2023-08-30T02:03:34;6.60;;;6.00;;
10731;SDS011;5417;42.686;23.244;2023-08-30T02:06:02;6.70;;;5.57;;
10731;SDS011;5417;42.686;23.244;2023-08-30T02:08:35;7.17;;;6.07;;
10731;SDS011;5417;42.686;23.244;2023-08-30T02:11:07;6.93;;;6.20;;
10731;SDS011;5417;42.686;23.244;2023-08-30T02:13:38;7.53;;;6.40;;
10731;SDS011;5417;42.686;23.244;2023-08-30T02:16:06;8.47;;;5.90;;
10731;SDS011;5417;42.686;23.244;2023-08-30T02:18:37;7.47;;;6.43;;
10731;SDS011;5417;42.686;23.244;2023-08-30T02:21:04;7.67;;;6.03;;
10731;SDS011;5417;42.686;23.244;2023-08-30T02:23:31;6.47;;;5.87;;
10731;SDS011;5417;42.686;23.244;2023-08-30T02:25:58;8.50;;;6.20;;
10731;SDS011;5417;42.686;23.244;2023-08-30T02:28:25;6.40;;;5.90;;
10731;SDS011;5417;42.686;23.244;2023-08-30T02:30:52;6.13;;;5.70;;
10731;SDS011;5417;42.686;23.244;2023-08-30T02:33:20;6.53;;;5.93;;
10731;SDS011;5417;42.686;23.244;2023-08-30T02:35:50;7.03;;;6.30;;
10731;SDS011;5417;42.686;23.244;2023-08-30T02:38:19;8.77;;;6.80;;
10731;SDS011;5417;42.686;23.244;2023-08-30T02:40:45;6.07;;;5.63;;
10731;SDS011;5417;42.686;23.244;2023-08-30T02:43:12;6.53;;;6.00;;
10731;SDS011;5417;42.686;23.244;2023-08-30T02:45:39;6.90;;;6.10;;
10731;SDS011;5417;42.686;23.244;2023-08-30T02:48:06;8.70;;;6.20;;
10731;SDS011;5417;42.686;23.244;2023-08-30T02:50:34;6.80;;;6.20;;
10731;SDS011;5417;42.686;23.244;2023-08-30T02:53:03;6.90;;;6.17;;
10731;SDS011;5417;42.686;23.244;2023-08-30T02:55:35;7.77;;;6.07;;
10731;SDS011;5417;42.686;23.244;2023-08-30T02:58:02;5.87;;;5.30;;
10731;SDS011;5417;42.686;23.244;2023-08-30T03:00:29;6.30;;;5.80;;
10731;SDS011;5417;42.686;23.244;2023-08-30T03:02:59;7.17;;;5.90;;
10731;SDS011;5417;42.686;23.244;2023-08-30T03:05:26;8.40;;;6.10;;
10731;SDS011;5417;42.686;23.244;2023-08-30T03:07:55;13.00;;;6.13;;
10731;SDS011;5417;42.686;23.244;2023-08-30T03:10:23;7.87;;;6.73;;
10731;SDS011;5417;42.686;23.244;2023-08-30T03:12:50;10.73;;;6.60;;
10731;SDS011;5417;42.686;23.244;2023-08-30T03:15:17;10.03;;;6.47;;
10731;SDS011;5417;42.686;23.244;2023-08-30T03:17:44;11.30;;;6.07;;
10731;SDS011;5417;42.686;23.244;2023-08-30T03:20:11;9.90;;;5.90;;
10731;SDS011;5417;42.686;23.244;2023-08-30T03:22:38;5.90;;;5.40;;
10731;SDS011;5417;42.686;23.244;2023-08-30T03:25:05;5.93;;;5.43;;
10731;SDS011;5417;42.686;23.244;2023-08-30T03:27:35;8.27;;;5.50;;
10731;SDS011;5417;42.686;23.244;2023-08-30T03:30:03;6.67;;;5.87;;
10731;SDS011;5417;42.686;23.244;2023-08-30T03:32:31;8.70;;;5.50;;
10731;SDS011;5417;42.686;23.244;2023-08-30T03:34:58;7.13;;;5.43;;
10731;SDS011;5417;42.686;23.244;2023-08-30T03:37:25;9.47;;;5.97;;
10731;SDS011;5417;42.686;23.244;2023-08-30T03:39:52;8.43;;;5.27;;
10731;SDS011;5417;42.686;23.244;2023-08-30T03:42:19;8.80;;;5.10;;
10731;SDS011;5417;42.686;23.244;2023-08-30T03:44:47;7.30;;;6.23;;
10731;SDS011;5417;42.686;23.244;2023-08-30T03:47:14;5.97;;;5.40;;
10731;SDS011;5417;42.686;23.244;2023-08-30T03:49:41;9.27;;;5.97;;
10731;SDS011;5417;42.686;23.244;2023-08-30T03:52:09;7.97;;;5.97;;
10731;SDS011;5417;42.686;23.244;2023-08-30T03:54:40;10.10;;;7.20;;
10731;SDS011;5417;42.686;23.244;2023-08-30T03:57:11;7.23;;;6.47;;
10731;SDS011;5417;42.686;23.244;2023-08-30T03:59:40;8.20;;;5.87;;
10731;SDS011;5417;42.686;23.244;2023-08-30T04:02:08;8.60;;;6.00;;
10731;SDS011;5417;42.686;23.244;2023-08-30T04:04:36;7.50;;;6.13;;
10731;SDS011;5417;42.686;23.244;2023-08-30T04:07:10;10.83;;;5.63;;
10731;SDS011;5417;42.686;23.244;2023-08-30T04:09:37;12.93;;;6.30;;
10731;SDS011;5417;42.686;23.244;2023-08-30T04:12:04;8.83;;;5.97;;
10731;SDS011;5417;42.686;23.244;2023-08-30T04:14:34;10.53;;;5.87;;
10731;SDS011;5417;42.686;23.244;2023-08-30T04:17:01;11.10;;;6.17;;
10731;SDS011;5417;42.686;23.244;2023-08-30T04:19:29;8.00;;;5.33;;
10731;SDS011;5417;42.686;23.244;2023-08-30T04:21:56;5.10;;;4.70;;
10731;SDS011;5417;42.686;23.244;2023-08-30T04:24:27;6.47;;;4.83;;
10731;SDS011;5417;42.686;23.244;2023-08-30T04:26:54;5.70;;;5.17;;
10731;SDS011;5417;42.686;23.244;2023-08-30T04:29:21;11.63;;;4.93;;
10731;SDS011;5417;42.686;23.244;2023-08-30T04:31:48;6.47;;;4.90;;
10731;SDS011;5417;42.686;23.244;2023-08-30T04:34:14;5.93;;;3.90;;
10731;SDS011;5417;42.686;23.244;2023-08-30T04:36:43;5.03;;;3.83;;
10731;SDS011;5417;42.686;23.244;2023-08-30T04:39:10;7.10;;;3.87;;
10731;SDS011;5417;42.686;23.244;2023-08-30T04:41:39;5.30;;;4.27;;
10731;SDS011;5417;42.686;23.244;2023-08-30T04:44:06;3.87;;;3.47;;
10731;SDS011;5417;42.686;23.244;2023-08-30T04:46:33;5.33;;;4.00;;
10731;SDS011;5417;42.686;23.244;2023-08-30T04:49:00;6.27;;;3.83;;
10731;SDS011;5417;42.686;23.244;2023-08-30T04:51:27;5.93;;;3.90;;
10731;SDS011;5417;42.686;23.244;2023-08-30T04:53:55;4.43;;;4.00;;
10731;SDS011;5417;42.686;23.244;2023-08-30T04:56:22;4.60;;;4.00;;
10731;SDS011;5417;42.686;23.244;2023-08-30T04:58:49;6.47;;;4.30;;
10731;SDS011;5417;42.686;23.244;2023-08-30T05:01:16;6.97;;;4.07;;
10731;SDS011;5417;42.686;23.244;2023-08-30T05:03:43;6.07;;;4.43;;
10731;SDS011;5417;42.686;23.244;2023-08-30T05:06:10;4.80;;;4.00;;
10731;SDS011;5417;42.686;23.244;2023-08-30T05:08:41;4.83;;;4.13;;
10731;SDS011;5417;42.686;23.244;2023-08-30T05:11:09;4.17;;;3.77;;
10731;SDS011;5417;42.686;23.244;2023-08-30T05:13:36;5.73;;;4.00;;
10731;SDS011;5417;42.686;23.244;2023-08-30T05:16:03;5.27;;;4.20;;
10731;SDS011;5417;42.686;23.244;2023-08-30T05:18:30;12.60;;;4.63;;
10731;SDS011;5417;42.686;23.244;2023-08-30T05:20:57;4.73;;;4.30;;
10731;SDS011;5417;42.686;23.244;2023-08-30T05:23:24;5.17;;;4.23;;
10731;SDS011;5417;42.686;23.244;2023-08-30T05:25:51;5.23;;;3.97;;
10731;SDS011;5417;42.686;23.244;2023-08-30T05:28:19;4.80;;;4.00;;
10731;SDS011;5417;42.686;23.244;2023-08-30T05:30:46;5.97;;;3.90;;
10731;SDS011;5417;42.686;23.244;2023-08-30T05:33:13;6.27;;;3.67;;
10731;SDS011;5417;42.686;23.244;2023-08-30T05:35:40;4.93;;;4.30;;
10731;SDS011;5417;42.686;23.244;2023-08-30T05:38:07;5.27;;;4.37;;
10731;SDS011;5417;42.686;23.244;2023-08-30T05:40:34;7.50;;;4.17;;
10731;SDS011;5417;42.686;23.244;2023-08-30T05:43:02;4.93;;;3.80;;
10731;SDS011;5417;42.686;23.244;2023-08-30T05:45:30;3.92;;;3.55;;
10731;SDS011;5417;42.686;23.244;2023-08-30T05:47:57;8.45;;;4.55;;
10731;SDS011;5417;42.686;23.244;2023-08-30T05:50:24;3.80;;;3.50;;
10731;SDS011;5417;42.686;23.244;2023-08-30T05:52:51;4.68;;;3.60;;
10731;SDS011;5417;42.686;23.244;2023-08-30T05:55:18;5.05;;;4.40;;
10731;SDS011;5417;42.686;23.244;2023-08-30T05:57:45;5.40;;;3.73;;
10731;SDS011;5417;42.686;23.244;2023-08-30T06:00:13;4.13;;;3.60;;
10731;SDS011;5417;42.686;23.244;2023-08-30T06:02:41;4.57;;;3.20;;
10731;SDS011;5417;42.686;23.244;2023-08-30T06:05:09;4.33;;;3.80;;
10731;SDS011;5417;42.686;23.244;2023-08-30T06:07:36;5.63;;;4.10;;
10731;SDS011;5417;42.686;23.244;2023-08-30T06:10:03;3.60;;;3.30;;
10731;SDS011;5417;42.686;23.244;2023-08-30T06:12:30;4.00;;;3.53;;
10731;SDS011;5417;42.686;23.244;2023-08-30T06:14:57;4.93;;;3.83;;
10731;SDS011;5417;42.686;23.244;2023-08-30T06:17:24;4.03;;;3.60;;
10731;SDS011;5417;42.686;23.244;2023-08-30T06:19:53;4.47;;;3.97;;
10731;SDS011;5417;42.686;23.244;2023-08-30T06:22:20;3.80;;;3.50;;
10731;SDS011;5417;42.686;23.244;2023-08-30T06:24:47;6.03;;;3.90;;
10731;SDS011;5417;42.686;23.244;2023-08-30T06:27:14;4.23;;;3.70;;
10731;SDS011;5417;42.686;23.244;2023-08-30T06:29:43;6.13;;;3.80;;
10731;SDS011;5417;42.686;23.244;2023-08-30T06:32:10;6.30;;;3.93;;
10731;SDS011;5417;42.686;23.244;2023-08-30T06:34:37;4.37;;;3.93;;
10731;SDS011;5417;42.686;23.244;2023-08-30T06:37:06;3.90;;;3.60;;
10731;SDS011;5417;42.686;23.244;2023-08-30T06:39:33;4.45;;;3.85;;
10731;SDS011;5417;42.686;23.244;2023-08-30T06:42:01;5.25;;;3.90;;
10731;SDS011;5417;42.686;23.244;2023-08-30T06:44:29;5.10;;;4.00;;
10731;SDS011;5417;42.686;23.244;2023-08-30T06:46:56;4.63;;;4.23;;
10731;SDS011;5417;42.686;23.244;2023-08-30T06:49:23;4.00;;;3.73;;
10731;SDS011;5417;42.686;23.244;2023-08-30T06:51:51;4.13;;;3.83;;
10731;SDS011;5417;42.686;23.244;2023-08-30T06:54:19;6.50;;;3.97;;
10731;SDS011;5417;42.686;23.244;2023-08-30T06:56:56;6.47;;;3.90;;
10731;SDS011;5417;42.686;23.244;2023-08-30T06:59:24;4.67;;;4.17;;
10731;SDS011;5417;42.686;23.244;2023-08-30T07:01:51;4.87;;;4.40;;
10731;SDS011;5417;42.686;23.244;2023-08-30T07:04:19;5.68;;;3.90;;
10731;SDS011;5417;42.686;23.244;2023-08-30T07:06:46;5.43;;;4.00;;
10731;SDS011;5417;42.686;23.244;2023-08-30T07:09:14;4.70;;;4.00;;
10731;SDS011;5417;42.686;23.244;2023-08-30T07:11:43;4.50;;;3.92;;
10731;SDS011;5417;42.686;23.244;2023-08-30T07:14:10;6.65;;;4.13;;
10731;SDS011;5417;42.686;23.244;2023-08-30T07:16:39;4.30;;;4.00;;
10731;SDS011;5417;42.686;23.244;2023-08-30T07:19:06;5.97;;;4.55;;
10731;SDS011;5417;42.686;23.244;2023-08-30T07:21:35;4.63;;;4.22;;
10731;SDS011;5417;42.686;23.244;2023-08-30T07:24:04;6.80;;;4.43;;
10731;SDS011;5417;42.686;23.244;2023-08-30T07:26:32;5.33;;;4.50;;
10731;SDS011;5417;42.686;23.244;2023-08-30T07:29:00;5.13;;;3.97;;
10731;SDS011;5417;42.686;23.244;2023-08-30T07:31:30;3.67;;;3.25;;
10731;SDS011;5417;42.686;23.244;2023-08-30T07:33:57;5.50;;;3.70;;
10731;SDS011;5417;42.686;23.244;2023-08-30T07:36:26;4.03;;;3.67;;
10731;SDS011;5417;42.686;23.244;2023-08-30T07:38:54;3.90;;;3.60;;
10731;SDS011;5417;42.686;23.244;2023-08-30T07:41:21;4.20;;;3.87;;
10731;SDS011;5417;42.686;23.244;2023-08-30T07:43:48;5.57;;;3.97;;
10731;SDS011;5417;42.686;23.244;2023-08-30T07:46:17;5.30;;;3.47;;
10731;SDS011;5417;42.686;23.244;2023-08-30T07:48:44;3.23;;;3.00;;
10731;SDS011;5417;42.686;23.244;2023-08-30T07:51:11;3.78;;;3.50;;
10731;SDS011;5417;42.686;23.244;2023-08-30T07:53:37;3.78;;;3.45;;
10731;SDS011;5417;42.686;23.244;2023-08-30T07:56:04;5.33;;;3.70;;
10731;SDS011;5417;42.686;23.244;2023-08-30T07:58:32;4.97;;;3.50;;
10731;SDS011;5417;42.686;23.244;2023-08-30T08:01:00;8.53;;;4.20;;
10731;SDS011;5417;42.686;23.244;2023-08-30T08:03:29;4.50;;;4.10;;
10731;SDS011;5417;42.686;23.244;2023-08-30T08:05:58;3.67;;;3.40;;
10731;SDS011;5417;42.686;23.244;2023-08-30T08:08:26;5.03;;;3.77;;
10731;SDS011;5417;42.686;23.244;2023-08-30T08:10:53;6.88;;;3.63;;
10731;SDS011;5417;42.686;23.244;2023-08-30T08:13:20;4.80;;;3.70;;
10731;SDS011;5417;42.686;23.244;2023-08-30T08:15:47;5.50;;;3.10;;
10731;SDS011;5417;42.686;23.244;2023-08-30T08:18:15;3.90;;;3.60;;
10731;SDS011;5417;42.686;23.244;2023-08-30T08:20:44;3.00;;;2.72;;
10731;SDS011;5417;42.686;23.244;2023-08-30T08:23:11;2.90;;;2.70;;
10731;SDS011;5417;42.686;23.244;2023-08-30T08:25:38;6.28;;;3.22;;
10731;SDS011;5417;42.686;23.244;2023-08-30T08:28:05;3.90;;;2.93;;
10731;SDS011;5417;42.686;23.244;2023-08-30T08:30:32;3.60;;;3.17;;
10731;SDS011;5417;42.686;23.244;2023-08-30T08:33:00;3.33;;;3.07;;
10731;SDS011;5417;42.686;23.244;2023-08-30T08:35:27;4.10;;;3.70;;
10731;SDS011;5417;42.686;23.244;2023-08-30T08:37:55;4.10;;;3.30;;
10731;SDS011;5417;42.686;23.244;2023-08-30T08:40:22;3.23;;;2.87;;
10731;SDS011;5417;42.686;23.244;2023-08-30T08:42:49;2.90;;;2.70;;
10731;SDS011;5417;42.686;23.244;2023-08-30T08:45:17;4.75;;;3.03;;
10731;SDS011;5417;42.686;23.244;2023-08-30T08:47:45;6.95;;;4.05;;
10731;SDS011;5417;42.686;23.244;2023-08-30T08:50:13;3.75;;;3.40;;
10731;SDS011;5417;42.686;23.244;2023-08-30T08:52:41;3.77;;;2.90;;
10731;SDS011;5417;42.686;23.244;2023-08-30T08:55:10;7.65;;;5.13;;
10731;SDS011;5417;42.686;23.244;2023-08-30T08:57:38;5.23;;;3.90;;
10731;SDS011;5417;42.686;23.244;2023-08-30T09:00:06;4.83;;;3.80;;
10731;SDS011;5417;42.686;23.244;2023-08-30T09:02:34;5.53;;;3.23;;
10731;SDS011;5417;42.686;23.244;2023-08-30T09:05:01;4.63;;;4.23;;
10731;SDS011;5417;42.686;23.244;2023-08-30T09:07:30;4.53;;;4.13;;
10731;SDS011;5417;42.686;23.244;2023-08-30T09:09:58;5.15;;;4.03;;
10731;SDS011;5417;42.686;23.244;2023-08-30T09:12:27;4.55;;;4.18;;
10731;SDS011;5417;42.686;23.244;2023-08-30T09:14:59;4.65;;;4.20;;
10731;SDS011;5417;42.686;23.244;2023-08-30T09:17:34;6.28;;;4.95;;
10731;SDS011;5417;42.686;23.244;2023-08-30T09:20:06;6.25;;;5.30;;
10731;SDS011;5417;42.686;23.244;2023-08-30T09:22:37;4.78;;;4.25;;
10731;SDS011;5417;42.686;23.244;2023-08-30T09:25:08;5.65;;;5.15;;
10731;SDS011;5417;42.686;23.244;2023-08-30T09:27:40;4.85;;;4.45;;
10731;SDS011;5417;42.686;23.244;2023-08-30T09:30:08;6.17;;;5.57;;
10731;SDS011;5417;42.686;23.244;2023-08-30T09:32:39;5.10;;;4.65;;
10731;SDS011;5417;42.686;23.244;2023-08-30T09:35:08;5.03;;;4.45;;
10731;SDS011;5417;42.686;23.244;2023-08-30T09:37:36;5.30;;;4.80;;
10731;SDS011;5417;42.686;23.244;2023-08-30T09:40:04;4.78;;;4.38;;
10731;SDS011;5417;42.686;23.244;2023-08-30T09:42:32;5.88;;;5.38;;
10731;SDS011;5417;42.686;23.244;2023-08-30T09:45:02;5.25;;;4.35;;
10731;SDS011;5417;42.686;23.244;2023-08-30T09:47:32;5.45;;;5.05;;
10731;SDS011;5417;42.686;23.244;2023-08-30T09:50:01;5.23;;;4.83;;
10731;SDS011;5417;42.686;23.244;2023-08-30T09:52:29;5.45;;;4.95;;
10731;SDS011;5417;42.686;23.244;2023-08-30T09:54:57;5.80;;;5.10;;
10731;SDS011;5417;42.686;23.244;2023-08-30T09:57:27;5.63;;;4.90;;
10731;SDS011;5417;42.686;23.244;2023-08-30T09:59:55;7.57;;;4.93;;
10731;SDS011;5417;42.686;23.244;2023-08-30T10:02:26;5.73;;;5.33;;
10731;SDS011;5417;42.686;23.244;2023-08-30T10:04:53;5.53;;;5.13;;
10731;SDS011;5417;42.686;23.244;2023-08-30T10:07:21;5.87;;;5.07;;
10731;SDS011;5417;42.686;23.244;2023-08-30T10:09:50;6.40;;;5.53;;
10731;SDS011;5417;42.686;23.244;2023-08-30T10:12:20;6.27;;;5.10;;
10731;SDS011;5417;42.686;23.244;2023-08-30T10:14:47;6.00;;;5.40;;
10731;SDS011;5417;42.686;23.244;2023-08-30T10:17:14;7.38;;;4.93;;
10731;SDS011;5417;42.686;23.244;2023-08-30T10:19:46;5.40;;;4.72;;
10731;SDS011;5417;42.686;23.244;2023-08-30T10:22:13;6.07;;;5.47;;
10731;SDS011;5417;42.686;23.244;2023-08-30T10:24:44;5.80;;;5.35;;
10731;SDS011;5417;42.686;23.244;2023-08-30T10:27:13;6.45;;;6.03;;
10731;SDS011;5417;42.686;23.244;2023-08-30T10:29:42;5.82;;;5.22;;
10731;SDS011;5417;42.686;23.244;2023-08-30T10:32:11;6.13;;;5.57;;
10731;SDS011;5417;42.686;23.244;2023-08-30T10:34:38;5.47;;;5.07;;
10731;SDS011;5417;42.686;23.244;2023-08-30T10:37:07;6.22;;;5.72;;
10731;SDS011;5417;42.686;23.244;2023-08-30T10:39:37;5.35;;;4.95;;
10731;SDS011;5417;42.686;23.244;2023-08-30T10:42:08;9.55;;;6.13;;
10731;SDS011;5417;42.686;23.244;2023-08-30T10:44:46;7.65;;;6.18;;
10731;SDS011;5417;42.686;23.244;2023-08-30T10:47:19;7.15;;;6.07;;
10731;SDS011;5417;42.686;23.244;2023-08-30T10:49:48;6.65;;;6.00;;
10731;SDS011;5417;42.686;23.244;2023-08-30T10:52:17;5.47;;;5.07;;
10731;SDS011;5417;42.686;23.244;2023-08-30T10:54:44;5.80;;;5.30;;
10731;SDS011;5417;42.686;23.244;2023-08-30T10:57:14;5.65;;;5.03;;
10731;SDS011;5417;42.686;23.244;2023-08-30T11:00:03;7.28;;;5.30;;
10731;SDS011;5417;42.686;23.244;2023-08-30T11:02:30;7.35;;;5.65;;
10731;SDS011;5417;42.686;23.244;2023-08-30T11:04:58;6.50;;;5.70;;
10731;SDS011;5417;42.686;23.244;2023-08-30T11:07:31;6.35;;;5.90;;
10731;SDS011;5417;42.686;23.244;2023-08-30T11:10:08;6.00;;;5.50;;
10731;SDS011;5417;42.686;23.244;2023-08-30T11:12:48;4.93;;;4.55;;
10731;SDS011;5417;42.686;23.244;2023-08-30T11:15:16;7.22;;;4.85;;
10731;SDS011;5417;42.686;23.244;2023-08-30T11:17:43;5.65;;;5.05;;
10731;SDS011;5417;42.686;23.244;2023-08-30T11:20:11;11.38;;;7.45;;
10731;SDS011;5417;42.686;23.244;2023-08-30T11:22:44;6.40;;;5.00;;
10731;SDS011;5417;42.686;23.244;2023-08-30T11:25:18;4.60;;;4.18;;
10731;SDS011;5417;42.686;23.244;2023-08-30T11:27:46;5.03;;;4.53;;
10731;SDS011;5417;42.686;23.244;2023-08-30T11:30:13;4.88;;;4.10;;
10731;SDS011;5417;42.686;23.244;2023-08-30T11:32:41;4.57;;;4.15;;
10731;SDS011;5417;42.686;23.244;2023-08-30T11:35:09;5.22;;;4.50;;
10731;SDS011;5417;42.686;23.244;2023-08-30T11:37:36;5.78;;;4.60;;
10731;SDS011;5417;42.686;23.244;2023-08-30T11:40:05;4.75;;;4.43;;
10731;SDS011;5417;42.686;23.244;2023-08-30T11:42:32;5.13;;;4.72;;
10731;SDS011;5417;42.686;23.244;2023-08-30T11:45:00;4.82;;;4.43;;
10731;SDS011;5417;42.686;23.244;2023-08-30T11:47:27;5.43;;;4.95;;
10731;SDS011;5417;42.686;23.244;2023-08-30T11:49:54;4.55;;;4.18;;
10731;SDS011;5417;42.686;23.244;2023-08-30T11:52:22;4.82;;;4.53;;
10731;SDS011;5417;42.686;23.244;2023-08-30T11:54:51;6.72;;;4.97;;
10731;SDS011;5417;42.686;23.244;2023-08-30T11:57:20;6.15;;;5.18;;
10731;SDS011;5417;42.686;23.244;2023-08-30T11:59:47;5.38;;;5.03;;
10731;SDS011;5417;42.686;23.244;2023-08-30T12:02:15;5.60;;;5.20;;
10731;SDS011;5417;42.686;23.244;2023-08-30T12:04:43;6.07;;;5.60;;
10731;SDS011;5417;42.686;23.244;2023-08-30T12:07:20;5.95;;;5.38;;
10731;SDS011;5417;42.686;23.244;2023-08-30T12:09:52;6.18;;;5.63;;
10731;SDS011;5417;42.686;23.244;2023-08-30T12:12:45;5.65;;;5.22;;
10731;SDS011;5417;42.686;23.244;2023-08-30T12:15:13;5.57;;;5.05;;
10731;SDS011;5417;42.686;23.244;2023-08-30T12:17:40;6.32;;;5.38;;
10731;SDS011;5417;42.686;23.244;2023-08-30T12:20:14;5.85;;;5.28;;
10731;SDS011;5417;42.686;23.244;2023-08-30T12:22:43;5.68;;;5.18;;
10731;SDS011;5417;42.686;23.244;2023-08-30T12:25:16;5.75;;;5.25;;
10731;SDS011;5417;42.686;23.244;2023-08-30T12:27:46;5.53;;;5.07;;
10731;SDS011;5417;42.686;23.244;2023-08-30T12:30:13;5.88;;;5.40;;
10731;SDS011;5417;42.686;23.244;2023-08-30T12:32:43;5.47;;;4.90;;
10731;SDS011;5417;42.686;23.244;2023-08-30T12:35:10;5.60;;;4.53;;
10731;SDS011;5417;42.686;23.244;2023-08-30T12:37:37;5.28;;;4.78;;
10731;SDS011;5417;42.686;23.244;2023-08-30T12:40:04;5.88;;;5.38;;
10731;SDS011;5417;42.686;23.244;2023-08-30T12:42:32;5.85;;;5.28;;
10731;SDS011;5417;42.686;23.244;2023-08-30T12:45:01;6.20;;;5.00;;
10731;SDS011;5417;42.686;23.244;2023-08-30T12:47:28;5.65;;;5.05;;
10731;SDS011;5417;42.686;23.244;2023-08-30T12:49:55;5.32;;;4.93;;
10731;SDS011;5417;42.686;23.244;2023-08-30T12:52:22;5.00;;;4.60;;
10731;SDS011;5417;42.686;23.244;2023-08-30T12:54:50;5.28;;;4.88;;
10731;SDS011;5417;42.686;23.244;2023-08-30T12:57:32;6.50;;;4.70;;
10731;SDS011;5417;42.686;23.244;2023-08-30T13:00:01;5.00;;;4.60;;
10731;SDS011;5417;42.686;23.244;2023-08-30T13:02:28;6.20;;;4.88;;
10731;SDS011;5417;42.686;23.244;2023-08-30T13:04:55;5.35;;;4.95;;
10731;SDS011;5417;42.686;23.244;2023-08-30T13:07:22;5.72;;;5.10;;
10731;SDS011;5417;42.686;23.244;2023-08-30T13:09:49;4.97;;;4.47;;
10731;SDS011;5417;42.686;23.244;2023-08-30T13:12:16;4.82;;;4.30;;
10731;SDS011;5417;42.686;23.244;2023-08-30T13:15:14;5.30;;;4.20;;
10731;SDS011;5417;42.686;23.244;2023-08-30T13:17:36;6.53;;;4.97;;
10731;SDS011;5417;42.686;23.244;2023-08-30T13:20:04;4.63;;;4.22;;
10731;SDS011;5417;42.686;23.244;2023-08-30T13:22:31;6.22;;;5.00;;
10731;SDS011;5417;42.686;23.244;2023-08-30T13:24:58;4.57;;;4.18;;
10731;SDS011;5417;42.686;23.244;2023-08-30T13:27:25;4.90;;;4.50;;
10731;SDS011;5417;42.686;23.244;2023-08-30T13:29:52;4.80;;;4.47;;
10731;SDS011;5417;42.686;23.244;2023-08-30T13:32:20;5.03;;;4.32;;
10731;SDS011;5417;42.686;23.244;2023-08-30T13:34:47;5.75;;;4.75;;
10731;SDS011;5417;42.686;23.244;2023-08-30T13:37:14;5.32;;;4.93;;
10731;SDS011;5417;42.686;23.244;2023-08-30T13:39:41;4.60;;;4.30;;
10731;SDS011;5417;42.686;23.244;2023-08-30T13:42:08;5.25;;;4.85;;
10731;SDS011;5417;42.686;23.244;2023-08-30T13:45:07;6.28;;;5.10;;
10731;SDS011;5417;42.686;23.244;2023-08-30T13:47:30;7.15;;;4.80;;
10731;SDS011;5417;42.686;23.244;2023-08-30T13:49:57;4.43;;;4.13;;
10731;SDS011;5417;42.686;23.244;2023-08-30T13:53:28;4.80;;;4.38;;
10731;SDS011;5417;42.686;23.244;2023-08-30T13:55:31;5.10;;;4.60;;
10731;SDS011;5417;42.686;23.244;2023-08-30T13:57:58;4.50;;;4.10;;
10731;SDS011;5417;42.686;23.244;2023-08-30T14:00:25;4.70;;;4.30;;
10731;SDS011;5417;42.686;23.244;2023-08-30T14:08:39;4.47;;;4.15;;
10731;SDS011;5417;42.686;23.244;2023-08-30T14:11:07;4.50;;;4.03;;
10731;SDS011;5417;42.686;23.244;2023-08-30T14:13:34;4.13;;;3.83;;
10731;SDS011;5417;42.686;23.244;2023-08-30T14:19:23;4.22;;;3.83;;
10731;SDS011;5417;42.686;23.244;2023-08-30T14:21:43;3.47;;;3.25;;
10731;SDS011;5417;42.686;23.244;2023-08-30T14:25:07;3.85;;;3.50;;
10731;SDS011;5417;42.686;23.244;2023-08-30T14:27:27;3.78;;;3.47;;
10731;SDS011;5417;42.686;23.244;2023-08-30T14:30:27;4.38;;;3.60;;
10731;SDS011;5417;42.686;23.244;2023-08-30T14:32:48;4.65;;;3.97;;
10731;SDS011;5417;42.686;23.244;2023-08-30T14:35:15;4.32;;;3.70;;
10731;SDS011;5417;42.686;23.244;2023-08-30T14:37:43;5.00;;;3.53;;
10731;SDS011;5417;42.686;23.244;2023-08-30T14:40:10;4.50;;;2.85;;
10731;SDS011;5417;42.686;23.244;2023-08-30T14:42:53;5.47;;;3.20;;
10731;SDS011;5417;42.686;23.244;2023-08-30T14:45:20;5.63;;;4.00;;
10731;SDS011;5417;42.686;23.244;2023-08-30T14:47:47;4.55;;;3.75;;
10731;SDS011;5417;42.686;23.244;2023-08-30T14:50:14;4.15;;;3.85;;
10731;SDS011;5417;42.686;23.244;2023-08-30T14:52:43;6.28;;;4.78;;
10731;SDS011;5417;42.686;23.244;2023-08-30T15:08:22;6.23;;;3.73;;
10731;SDS011;5417;42.686;23.244;2023-08-30T15:10:49;7.23;;;3.83;;
10731;SDS011;5417;42.686;23.244;2023-08-30T15:13:17;4.57;;;3.60;;
10731;SDS011;5417;42.686;23.244;2023-08-30T15:15:46;5.05;;;3.88;;
10731;SDS011;5417;42.686;23.244;2023-08-30T15:18:13;5.87;;;3.80;;
10731;SDS011;5417;42.686;23.244;2023-08-30T15:20:40;7.67;;;3.40;;